• Join FlightAware (Why Join?)
  • Login
  • US Flag 
08:43AM EDT


 

Airport Tracker/Info


-or-


 

Live Flight TrackerFlight Track Log ✈ PDT4389 ✈ 10-Dec-2013 ✈ KDCA - KFAY

Flight Track Log - Related Links

Times and Time Zones

All times are in EST time to prevent confusion due to time zone crossing. See the PDT4389 flight status page for this flight to view local times or setup timezone preferences in your user account.

Time Position Orientation Groundspeed Altitude Reporting Facility
EST Latitude Longitude Course Direction KTS MPH feet Rate Location/Type
10:56PM 38.8833 -77.0833 303° West 126 145 3,300  Level Potomac TRACON
10:57PM 38.6173 -77.1556 170° South  Level Estimated
10:57PM 38.8667 -77.1167 237° Southwest 136 157 4,800  Level Potomac TRACON
10:58PM 38.5703 -77.0665 124° Southeast  Level FlightAware Approximate
10:58PM 38.8500 -77.1667 247° West 152 175 6,100  Level Potomac TRACON
10:59PM 38.4927 -77.1078 175° South  Level Estimated
10:59PM 38.8167 -77.2000 218° Southwest 171 197 7,100  Level Potomac TRACON
11:00PM 38.4386 -77.0258 130° Southeast  Level FlightAware Approximate
11:00PM 38.7667 -77.2333 207° Southwest 194 223 8,400  Level Potomac TRACON
11:01PM 38.7167 -77.2500 195° South 203 234 10,100 1,680 Climbing Potomac TRACON
11:02PM 38.6667 -77.2667 195° South 182 209 12,000 1,680 Climbing Potomac TRACON
11:03PM 38.6242 -77.2897 203° Southwest 167 192 13,100 1,320 Climbing Washington Center
11:04PM 38.5886 -77.3047 198° South 154 177 14,400 1,200 Climbing Washington Center
11:05PM 38.5467 -77.3197 196° South 154 177 15,600 1,140 Climbing Washington Center
11:06PM 38.5108 -77.3403 204° Southwest 154 177 16,700 1,020 Climbing Washington Center
11:07PM 38.4731 -77.3578 200° South 154 177 17,700 600 Climbing Washington Center
11:07PM 38.4353 -77.3756 200° South 154 177 18,000 120 Climbing Washington Center
11:09PM 38.3889 -77.4036 205° Southwest 161 185 18,000  Level Washington Center
11:09PM 38.3344 -77.4261 198° South 186 214 18,000  Level Washington Center
11:11PM 38.2839 -77.4514 201° Southwest 198 228 18,000  Level Washington Center
11:11PM 38.2333 -77.4817 205° Southwest 198 228 18,000  Level Washington Center
11:13PM 38.1808 -77.5042 199° South 198 228 18,000  Level Washington Center
11:13PM 38.1264 -77.5267 198° South 204 235 18,000  Level Washington Center
11:14PM 38.0844 -77.5467 201° Southwest 204 235 18,000  Level Washington Center
11:15PM 38.0275 -77.5767 203° Southwest 204 235 18,000  Level Washington Center
11:17PM 37.9750 -77.5964 196° South 209 241 18,000  Level Washington Center
11:17PM 37.9206 -77.6186 198° South 209 241 18,000  Level Washington Center
11:19PM 37.8678 -77.6436 201° Southwest 209 241 18,000  Level Washington Center
11:20PM 37.8153 -77.6683 200° South 209 241 18,000  Level Washington Center
11:21PM 37.7606 -77.6931 200° South 209 241 18,000  Level Washington Center
11:22PM 37.7083 -77.7128 197° South 209 241 18,000  Level Washington Center
11:22PM 37.6556 -77.7350 198° South 209 241 18,000  Level Washington Center
11:23PM 37.6011 -77.7569 198° South 209 241 18,000  Level Washington Center
11:25PM 37.5486 -77.7789 198° South 209 241 18,000  Level Washington Center
11:25PM 37.4939 -77.8011 198° South 209 241 18,000  Level Washington Center
11:27PM 37.4392 -77.8256 200° South 209 241 18,000  Level Washington Center
11:28PM 37.3867 -77.8503 201° Southwest 209 241 18,000  Level Washington Center
11:29PM 37.3317 -77.8772 201° Southwest 209 241 18,000  Level Washington Center
11:29PM 37.2772 -77.8992 198° South 209 241 18,000  Level Washington Center
11:31PM 37.2225 -77.9211 198° South 209 241 18,000  Level Washington Center
11:31PM 37.1700 -77.9428 198° South 209 241 18,000  Level Washington Center
11:33PM 37.1111 -77.9697 200° South 209 241 18,000  Level Washington Center
11:34PM 37.0583 -77.9914 198° South 209 241 18,000  Level Washington Center
11:34PM 37.0078 -78.0158 201° Southwest 209 241 18,000  Level Washington Center
11:35PM 36.9531 -78.0375 198° South 209 241 18,000  Level Washington Center
11:36PM 36.9006 -78.0567 196° South 209 241 18,000  Level Washington Center
11:37PM 36.8500 -78.0836 203° Southwest 203 234 18,000  Level Washington Center
11:38PM 36.7994 -78.1081 201° Southwest 203 234 18,000  Level Washington Center
11:39PM 36.7467 -78.1297 198° South 203 234 18,000  Level Washington Center
11:41PM 36.6942 -78.1511 198° South 203 234 18,000  Level Washington Center
11:41PM 36.6456 -78.1756 202° Southwest 203 234 18,000  Level Washington Center
11:42PM 36.6056 -78.1922 198° South 197 227 18,000  Level Washington Center
11:42PM 36.5950 -78.1972 201° Southwest 203 234 18,000 -360 Level Washington Center
11:43PM 36.5742 -78.2042 195° South 198 228 17,800 -120 Descending Washington Center
11:43PM 36.5383 -78.2158 195° South 208 239 17,900 -240 Climbing Washington Center
11:44PM 36.5131 -78.2281 201° Southwest 216 249 17,600 -600 Descending Washington Center
11:45PM 36.4833 -78.2475 208° Southwest 213 245 17,300 -660 Descending Washington Center
11:45PM 36.4561 -78.2544 192° South 228 262 17,000 -720 Descending Washington Center
11:45PM 36.4222 -78.2739 205° Southwest 218 251 16,600 -660 Descending Washington Center
11:46PM 36.4014 -78.2808 195° South 228 262 16,400 -720 Descending Washington Center
11:47PM 36.3528 -78.3025 200° South 234 269 15,900 -600 Descending Washington Center
11:47PM 36.3422 -78.3072 200° South 233 268 15,800 -540 Descending Washington Center
11:47PM 36.2939 -78.3314 202° Southwest 234 269 15,400 -600 Descending Washington Center
11:48PM 36.2811 -78.3361 197° South 236 272 15,200 -720 Descending Washington Center
11:48PM 36.2306 -78.3575 199° South 234 269 14,700 -600 Descending Washington Center
11:49PM 36.2178 -78.3647 205° Southwest 237 273 14,600 -540 Descending Washington Center
11:49PM 36.1714 -78.3864 201° Southwest 234 269 14,200 -600 Descending Washington Center
11:50PM 36.1567 -78.3936 202° Southwest 236 272 14,000 -720 Descending Washington Center
11:51PM 36.1061 -78.4147 199° South 234 269 13,500 -660 Descending Washington Center
11:51PM 36.0936 -78.4194 197° South 238 274 13,400 -660 Descending Washington Center
11:51PM 36.0450 -78.4408 200° South 234 269 12,900 -600 Descending Washington Center
11:52PM 36.0281 -78.4481 199° South 240 276 12,800 -600 Descending Washington Center
11:53PM 35.9669 -78.4739 199° South 242 278 12,200 -600 Descending Washington Center
11:54PM 35.8975 -78.5022 198° South 243 280 11,600 -660 Descending Washington Center
11:55PM 35.8300 -78.5306 199° South 245 282 10,900 -660 Descending Washington Center
11:56PM 35.7644 -78.5614 201° Southwest 245 282 10,300 -540 Descending Washington Center
11:58PM 35.6782 -78.5851 195° South  Level FlightAware Approximate
12:05AM 35.2822 -78.7552 199° South  Level FlightAware Approximate
12:06AM 35.2256 -78.7795 199° South  Level FlightAware Approximate
12:07AM 35.1671 -78.7957 192° South  Level FlightAware Approximate
12:08AM 35.1134 -78.8247 198° South  Level FlightAware Approximate
12:09AM 35.0564 -78.8475 198° South  Level FlightAware Approximate
12:10AM 34.9978 -78.8631 192° South  Level FlightAware Approximate
12:11AM 34.9833 -78.8667 192° South  Level FlightAware Approximate
12:12AM 34.9912 -78.8803 192° South  Level Estimated